createdAt,value
2022-11-04T00:01:37.941Z,145833.03
2022-11-04T00:04:05.198Z,145818.44
2022-11-04T00:06:32.288Z,145845.19
2022-11-04T00:08:59.763Z,145837.88
2022-11-04T00:11:46.609Z,145794.16
2022-11-04T00:14:14.381Z,145723.63
2022-11-04T00:17:00.498Z,145667.69
2022-11-04T00:19:27.698Z,145633.66
2022-11-04T00:22:13.864Z,145577.78
2022-11-04T00:24:43.542Z,145630.03
2022-11-04T00:27:34.156Z,145619.06
2022-11-04T00:30:01.944Z,145546.19
2022-11-04T00:32:47.641Z,145564.41
2022-11-04T00:35:14.669Z,145568.06
2022-11-04T00:37:43.237Z,145602.09
2022-11-04T00:40:12.616Z,145608.16
2022-11-04T00:42:40.109Z,145571.72
2022-11-04T00:45:07.626Z,145609.38
2022-11-04T00:47:34.642Z,145608.16
2022-11-04T00:50:01.633Z,145596.00
2022-11-04T00:52:28.600Z,145560.75
2022-11-04T00:54:55.593Z,145609.38
2022-11-04T00:57:22.674Z,145604.50
2022-11-04T00:59:49.730Z,145580.22
2022-11-04T01:02:17.094Z,145611.81
2022-11-04T01:04:44.173Z,145598.44
2022-11-04T01:07:11.924Z,145609.38
2022-11-04T01:09:39.025Z,145602.09
2022-11-04T01:12:06.244Z,145602.09
2022-11-04T01:14:36.693Z,145560.75
2022-11-04T01:17:03.722Z,145598.44
2022-11-04T01:19:31.095Z,145606.97
2022-11-04T01:21:58.923Z,145602.09
2022-11-04T01:24:26.222Z,145543.78
2022-11-04T01:26:53.201Z,145541.34
2022-11-04T01:29:20.294Z,145529.22
2022-11-04T01:31:47.362Z,145548.66
2022-11-04T01:34:14.455Z,145588.75
2022-11-04T01:36:41.491Z,145551.06
2022-11-04T01:39:09.577Z,145498.84
2022-11-04T01:41:36.629Z,145577.78
2022-11-04T01:44:25.013Z,145572.91
2022-11-04T01:46:54.019Z,145569.28
2022-11-04T01:49:28.939Z,145483.03
2022-11-04T01:52:05.410Z,145559.56
2022-11-04T01:54:34.744Z,145536.47
2022-11-04T01:57:05.279Z,145532.81
2022-11-04T01:59:38.904Z,145545.00
2022-11-04T02:02:06.873Z,145518.25
2022-11-04T02:04:34.697Z,145531.63
2022-11-04T02:07:06.965Z,145546.19
2022-11-04T02:09:35.990Z,145543.78
2022-11-04T02:12:22.411Z,145529.22
2022-11-04T02:14:50.467Z,145538.94
2022-11-04T02:17:20.228Z,145501.25
2022-11-04T02:20:14.929Z,145513.41
2022-11-04T02:22:41.836Z,145508.56
2022-11-04T02:25:45.764Z,145487.88
2022-11-04T02:28:15.393Z,145464.81
2022-11-04T02:30:50.054Z,145390.75
2022-11-04T02:33:19.755Z,145452.69
2022-11-04T02:36:01.291Z,145432.03
2022-11-04T02:38:31.072Z,145435.69
2022-11-04T02:41:08.869Z,145423.53
2022-11-04T02:44:16.194Z,145407.75
2022-11-04T02:47:04.579Z,145400.47
2022-11-04T02:49:38.402Z,145398.06
2022-11-04T02:52:09.687Z,145401.72
2022-11-04T02:54:50.121Z,145390.75
2022-11-04T02:57:22.672Z,145381.06
2022-11-04T02:59:53.791Z,145390.75
2022-11-04T03:02:27.928Z,145283.97
2022-11-04T03:04:57.934Z,145372.53
2022-11-04T03:07:31.384Z,145330.06
2022-11-04T03:10:07.945Z,145356.78
2022-11-04T03:12:42.504Z,145348.28
2022-11-04T03:15:17.627Z,145330.06
2022-11-04T03:18:04.932Z,145332.47
2022-11-04T03:20:32.108Z,145317.91
2022-11-04T03:23:00.323Z,145316.72
2022-11-04T03:25:34.649Z,145304.56
2022-11-04T03:28:13.569Z,145311.88
2022-11-04T03:30:45.903Z,145185.59
2022-11-04T03:33:24.656Z,145293.66
2022-11-04T03:39:43.284Z,145230.50
2022-11-04T03:42:21.666Z,145260.91
2022-11-04T03:44:54.184Z,145247.50
2022-11-04T03:47:24.415Z,145235.34
2022-11-04T03:49:59.019Z,145234.16
2022-11-04T03:52:27.165Z,145223.19
2022-11-04T03:54:54.167Z,145198.94
2022-11-04T03:57:50.415Z,145220.78
2022-11-04T04:00:20.419Z,145230.50
2022-11-04T04:03:06.506Z,145177.09
2022-11-04T04:06:03.638Z,145215.94
2022-11-04T04:08:46.811Z,145262.09
2022-11-04T04:11:30.804Z,145262.09
2022-11-04T04:14:33.962Z,145254.78
2022-11-04T04:17:05.116Z,145265.75
2022-11-04T04:19:33.866Z,145202.59
2022-11-04T04:22:06.955Z,145282.72
2022-11-04T04:24:56.986Z,145285.16
2022-11-04T04:27:42.480Z,145282.72
2022-11-04T04:30:15.273Z,145298.50
2022-11-04T04:32:56.343Z,145291.22
2022-11-04T04:35:43.802Z,145202.59
2022-11-04T04:38:43.671Z,145300.91
2022-11-04T04:41:40.224Z,145288.81
2022-11-04T04:44:41.550Z,145288.81
2022-11-04T04:47:11.121Z,145201.41
2022-11-04T04:49:54.974Z,145286.34
2022-11-04T04:52:23.408Z,145293.66
2022-11-04T04:54:50.369Z,145240.19
2022-11-04T04:57:17.479Z,145291.22
2022-11-04T04:59:44.494Z,145282.72
2022-11-04T05:02:11.619Z,145268.16
2022-11-04T05:04:38.661Z,145252.41
2022-11-04T05:07:07.707Z,145242.66
2022-11-04T05:09:34.759Z,145257.25
2022-11-04T05:12:01.890Z,145302.16
2022-11-04T05:14:29.302Z,145304.56
2022-11-04T05:16:56.359Z,145245.06
2022-11-04T05:19:23.342Z,145268.16
2022-11-04T05:21:50.307Z,145251.09
2022-11-04T05:24:17.357Z,145215.94
2022-11-04T05:26:44.387Z,145206.25
2022-11-04T05:29:12.440Z,145211.09
2022-11-04T05:31:39.806Z,145220.78
2022-11-04T05:34:06.830Z,145203.78
2022-11-04T05:36:33.864Z,145168.59
2022-11-04T05:39:00.995Z,145173.44
2022-11-04T05:41:28.049Z,145152.84
2022-11-04T05:44:00.287Z,145135.84
2022-11-04T05:46:28.304Z,145110.41
2022-11-04T05:48:55.940Z,145026.69
2022-11-04T05:51:26.610Z,145075.22
2022-11-04T05:53:53.644Z,145063.06
2022-11-04T05:56:20.958Z,145047.31
2022-11-04T05:58:48.128Z,145038.81
2022-11-04T06:01:36.101Z,145031.53
2022-11-04T06:04:05.185Z,145002.44
2022-11-04T06:06:35.294Z,145009.69
2022-11-04T06:09:03.612Z,145007.28
2022-11-04T06:11:32.160Z,144980.59
2022-11-04T06:13:59.578Z,144962.44
2022-11-04T06:16:27.011Z,144968.47
2022-11-04T06:18:54.417Z,144842.41
2022-11-04T06:21:25.935Z,144952.72
2022-11-04T06:23:56.714Z,144935.75
2022-11-04T06:26:27.842Z,144920.00
2022-11-04T06:28:55.563Z,144915.16
2022-11-04T06:31:22.972Z,144890.88
2022-11-04T06:33:50.034Z,144912.72
2022-11-04T06:36:17.390Z,144895.72
2022-11-04T06:38:44.730Z,144802.41
2022-11-04T06:41:15.232Z,144912.72
2022-11-04T06:43:42.359Z,144926.03
2022-11-04T06:46:35.449Z,144929.69
2022-11-04T06:49:03.501Z,144929.69
2022-11-04T06:51:30.866Z,144932.09
2022-11-04T06:53:57.853Z,144850.88
2022-11-04T06:56:25.275Z,144915.16
2022-11-04T06:58:54.231Z,144905.41
2022-11-04T07:01:23.412Z,144903.00
2022-11-04T07:03:52.325Z,144892.13
2022-11-04T07:06:21.100Z,144905.41
2022-11-04T07:08:49.380Z,144873.94
2022-11-04T07:11:19.603Z,144873.94
2022-11-04T07:13:47.177Z,144887.22
2022-11-04T07:16:14.299Z,144716.38
2022-11-04T07:18:41.647Z,144899.38
2022-11-04T07:21:10.344Z,144856.97
2022-11-04T07:23:37.747Z,144903.00
2022-11-04T07:26:07.373Z,144966.06
2022-11-04T07:28:35.140Z,145020.63
2022-11-04T07:31:04.433Z,145055.81
2022-11-04T07:33:33.684Z,144955.13
2022-11-04T07:36:05.309Z,145053.38
2022-11-04T07:38:32.570Z,145072.75
2022-11-04T07:41:00.376Z,145041.22
2022-11-04T07:43:27.721Z,145052.16
2022-11-04T07:46:12.003Z,145093.41
2022-11-04T07:48:39.127Z,145126.16
2022-11-04T07:51:08.659Z,145111.59
2022-11-04T07:53:35.659Z,145088.56
2022-11-04T07:56:05.358Z,145099.47
2022-11-04T07:58:32.766Z,145060.66
2022-11-04T08:01:01.562Z,145067.91
2022-11-04T08:03:28.745Z,145042.47
2022-11-04T08:05:59.811Z,145081.25
2022-11-04T08:08:28.149Z,145143.16
2022-11-04T08:10:57.733Z,145177.09
2022-11-04T08:13:28.484Z,145205.00
2022-11-04T08:15:57.874Z,145232.91
2022-11-04T08:18:24.879Z,145263.31
2022-11-04T08:20:52.655Z,145242.66
2022-11-04T08:23:20.297Z,145264.50
2022-11-04T08:25:47.290Z,145276.66
2022-11-04T08:28:17.583Z,145259.66
2022-11-04T08:30:59.275Z,145286.34
2022-11-04T08:33:27.506Z,145348.28
2022-11-04T08:35:55.868Z,145415.03
2022-11-04T08:38:22.849Z,145470.91
2022-11-04T08:40:49.979Z,145521.91
2022-11-04T08:43:17.394Z,145524.31
2022-11-04T08:45:46.615Z,145514.59
2022-11-04T08:48:16.481Z,145562.00
2022-11-04T08:50:43.780Z,145580.22
2022-11-04T08:53:11.152Z,145588.75
2022-11-04T08:55:38.283Z,145568.06
2022-11-04T08:58:05.449Z,145504.91
2022-11-04T09:00:33.057Z,145541.34
2022-11-04T09:03:00.486Z,145602.09
2022-11-04T09:05:28.727Z,145623.94
2022-11-04T09:07:55.828Z,145660.38
2022-11-04T09:10:23.203Z,145700.53
2022-11-04T09:12:50.242Z,145740.66
2022-11-04T09:15:17.352Z,145779.53
2022-11-04T09:17:44.478Z,145826.97
2022-11-04T09:20:12.170Z,145763.75
2022-11-04T09:22:44.593Z,145800.22
2022-11-04T09:25:12.713Z,145801.41
2022-11-04T09:27:39.721Z,145840.34
2022-11-04T09:30:07.146Z,145837.88
2022-11-04T09:32:34.153Z,145792.91
2022-11-04T09:35:01.280Z,145808.72
2022-11-04T09:37:28.315Z,145884.06
2022-11-04T09:39:55.481Z,145903.56
2022-11-04T09:42:28.854Z,145879.22
2022-11-04T09:47:52.700Z,146022.75
2022-11-04T09:50:31.944Z,146013.03
2022-11-04T09:53:06.656Z,146019.09
2022-11-04T09:55:50.427Z,146061.63
2022-11-04T09:58:17.672Z,146062.91
2022-11-04T10:00:59.068Z,146023.94
2022-11-04T10:03:31.797Z,146068.97
2022-11-04T10:06:07.595Z,146090.91
2022-11-04T10:08:56.211Z,146064.09
2022-11-04T10:11:25.935Z,146071.38
2022-11-04T10:14:14.568Z,146137.13
2022-11-04T10:17:03.229Z,146183.38
2022-11-04T10:20:01.465Z,146146.88
2022-11-04T10:22:35.213Z,146183.38
2022-11-04T10:25:14.004Z,146159.06
2022-11-04T10:27:44.840Z,146190.69
2022-11-04T10:30:18.504Z,146167.53
2022-11-04T10:33:10.443Z,146151.72
2022-11-04T10:35:57.284Z,146104.31
2022-11-04T10:38:36.387Z,146086.06
2022-11-04T10:41:17.884Z,146013.03
2022-11-04T10:43:44.992Z,146084.81
2022-11-04T10:46:38.771Z,146066.50
2022-11-04T10:49:54.723Z,146096.97
2022-11-04T10:52:28.349Z,146146.88
2022-11-04T10:54:55.384Z,146160.25
2022-11-04T10:57:25.838Z,146247.88
2022-11-04T10:59:54.468Z,146324.56
2022-11-04T11:02:36.729Z,146337.97
2022-11-04T11:05:20.611Z,146380.56
2022-11-04T11:07:50.804Z,146445.16
2022-11-04T11:10:20.554Z,146456.13
2022-11-04T11:13:02.010Z,146417.13
2022-11-04T11:15:40.038Z,146326.97
2022-11-04T11:18:21.094Z,146362.28
2022-11-04T11:20:51.260Z,146309.97
2022-11-04T11:23:39.890Z,146302.66
2022-11-04T11:26:10.246Z,146300.25
2022-11-04T11:28:40.458Z,146216.22
2022-11-04T11:31:16.507Z,146215.03
2022-11-04T11:33:50.186Z,146251.53
2022-11-04T11:36:19.308Z,146247.88
2022-11-04T11:39:06.642Z,146212.56
2022-11-04T11:41:52.899Z,146202.84
2022-11-04T11:44:38.701Z,146166.31
2022-11-04T11:47:15.391Z,146193.09
2022-11-04T11:49:42.482Z,146200.44
2022-11-04T11:52:31.782Z,146202.84
2022-11-04T11:55:07.493Z,146144.41
2022-11-04T11:57:44.749Z,146163.91
2022-11-04T12:03:11.945Z,146138.34
2022-11-04T12:06:18.944Z,146112.78
2022-11-04T12:11:48.553Z,146079.94
2022-11-04T12:14:24.065Z,146100.63
2022-11-04T12:17:24.846Z,146044.66
2022-11-04T12:20:08.843Z,146076.28
2022-11-04T12:22:58.364Z,146064.09
2022-11-04T12:25:32.628Z,146067.75
2022-11-04T12:28:05.932Z,146015.41
2022-11-04T12:30:46.697Z,146049.50
2022-11-04T12:33:23.860Z,146034.88
2022-11-04T12:36:20.683Z,146010.56
2022-11-04T12:39:14.431Z,146003.25
2022-11-04T12:42:19.060Z,146044.66
2022-11-04T12:44:44.424Z,146061.63
2022-11-04T12:47:23.633Z,146081.19
2022-11-04T12:50:06.193Z,146076.28
2022-11-04T12:52:39.278Z,146098.19
2022-11-04T12:55:17.300Z,146101.84
2022-11-04T12:57:50.000Z,146110.38
2022-11-04T13:00:20.768Z,146094.53
2022-11-04T13:03:14.938Z,146100.63
2022-11-04T13:05:58.252Z,146127.41
2022-11-04T13:08:46.272Z,146093.31
2022-11-04T13:11:33.237Z,146031.25
2022-11-04T13:14:16.221Z,146210.16
2022-11-04T13:16:46.919Z,146202.84
2022-11-04T13:19:35.269Z,146269.78
2022-11-04T13:22:13.736Z,146261.25
2022-11-04T13:24:48.964Z,146291.72
2022-11-04T13:27:23.564Z,146309.97
2022-11-04T13:29:56.253Z,146288.03
2022-11-04T13:32:27.657Z,146305.09
2022-11-04T13:35:04.655Z,146253.94
2022-11-04T13:38:13.101Z,146247.88
2022-11-04T13:41:21.847Z,146224.75
2022-11-04T13:43:55.240Z,146222.28
2022-11-04T13:46:29.978Z,146166.31
2022-11-04T13:49:02.249Z,146144.41
2022-11-04T13:51:43.031Z,146103.06
2022-11-04T13:54:33.499Z,146126.16
2022-11-04T13:57:21.840Z,146104.31
2022-11-04T14:00:13.380Z,146107.91
2022-11-04T14:02:44.868Z,146071.38
2022-11-04T14:05:24.080Z,146051.91
2022-11-04T14:08:02.851Z,146061.63
2022-11-04T14:10:47.820Z,146005.69
2022-11-04T14:13:32.885Z,146005.69
2022-11-04T14:16:28.907Z,146014.22
2022-11-04T14:18:56.052Z,146025.16
2022-11-04T14:21:27.497Z,146015.41
2022-11-04T14:24:01.799Z,145966.75
2022-11-04T14:26:42.362Z,145975.28
2022-11-04T14:29:17.922Z,145918.16
2022-11-04T14:31:49.984Z,145946.09
2022-11-04T14:34:31.009Z,145963.16
2022-11-04T14:37:00.767Z,145963.16
2022-11-04T14:39:34.215Z,145935.19
2022-11-04T14:42:03.663Z,145920.56
2022-11-04T14:44:49.352Z,145915.69
2022-11-04T14:47:21.395Z,145910.84
2022-11-04T14:49:49.717Z,145882.88
2022-11-04T14:52:25.895Z,145909.63
2022-11-04T14:54:58.217Z,145888.94
2022-11-04T14:57:25.280Z,145929.06
2022-11-04T14:59:53.764Z,145837.88
2022-11-04T15:02:24.797Z,145884.06
2022-11-04T15:05:02.202Z,145848.84
2022-11-04T15:07:35.839Z,145873.16
2022-11-04T15:10:26.950Z,145859.78
2022-11-04T15:13:00.255Z,145852.47
2022-11-04T15:15:37.619Z,145814.78
2022-11-04T15:18:25.521Z,145818.44
2022-11-04T15:20:58.141Z,145806.28
2022-11-04T15:23:33.403Z,145806.28
2022-11-04T15:26:02.100Z,145779.53
2022-11-04T15:28:34.647Z,145764.94
2022-11-04T15:31:20.701Z,145772.25
2022-11-04T15:33:51.630Z,145781.97
2022-11-04T15:36:25.217Z,145750.38
2022-11-04T15:38:57.929Z,145769.81
2022-11-04T15:41:44.226Z,145789.28
2022-11-04T15:44:18.139Z,145764.94
2022-11-04T15:46:53.346Z,145767.41
2022-11-04T15:49:24.277Z,145769.81
2022-11-04T15:51:54.102Z,145758.88
2022-11-04T15:54:36.451Z,145764.94
2022-11-04T15:57:16.672Z,145757.69
2022-11-04T15:59:57.972Z,145754.03
2022-11-04T16:02:29.358Z,145654.31
2022-11-04T16:05:11.611Z,145755.22
2022-11-04T16:07:50.213Z,145757.69
2022-11-04T16:10:36.930Z,145701.75
2022-11-04T16:13:16.121Z,145745.50
2022-11-04T16:15:48.043Z,145677.41
2022-11-04T16:18:36.464Z,145737.00
2022-11-04T16:21:13.250Z,145723.63
2022-11-04T16:23:46.881Z,145709.06
2022-11-04T16:26:14.354Z,145675.00
2022-11-04T16:28:42.726Z,145712.72
2022-11-04T16:31:25.931Z,145713.91
2022-11-04T16:33:53.167Z,145704.19
2022-11-04T16:36:30.924Z,145713.91
2022-11-04T16:39:04.404Z,145701.75
2022-11-04T16:41:35.924Z,145699.34
2022-11-04T16:44:05.091Z,145706.59
2022-11-04T16:46:33.722Z,145668.91
2022-11-04T16:49:00.728Z,145632.44
2022-11-04T16:51:27.700Z,145675.00
2022-11-04T16:53:54.732Z,145687.13
2022-11-04T16:56:26.456Z,145681.06
2022-11-04T16:58:53.535Z,145670.09
2022-11-04T17:01:21.329Z,145657.97
2022-11-04T17:03:49.275Z,145682.25
2022-11-04T17:06:16.987Z,145699.34
2022-11-04T17:08:44.250Z,145608.16
2022-11-04T17:11:12.433Z,145651.88
2022-11-04T17:13:39.464Z,145661.63
2022-11-04T17:16:10.296Z,145551.06
2022-11-04T17:18:37.396Z,145643.41
2022-11-04T17:21:07.546Z,145666.50
2022-11-04T17:23:35.299Z,145651.88
2022-11-04T17:26:02.307Z,145631.25
2022-11-04T17:28:31.463Z,145645.81
2022-11-04T17:30:58.688Z,145628.78
2022-11-04T17:33:26.786Z,145610.56
2022-11-04T17:35:54.280Z,145575.38
2022-11-04T17:38:21.530Z,145602.09
2022-11-04T17:41:07.131Z,145586.28
2022-11-04T17:43:52.882Z,145602.09
2022-11-04T17:46:35.407Z,145615.44
2022-11-04T17:49:07.153Z,145585.09
2022-11-04T17:51:35.340Z,145565.66
2022-11-04T17:54:02.604Z,145575.38
2022-11-04T17:56:30.931Z,145543.78
2022-11-04T17:59:01.630Z,145548.66
2022-11-04T18:01:28.815Z,145526.78
2022-11-04T18:03:56.002Z,145456.34
2022-11-04T18:06:23.641Z,145511.00
2022-11-04T18:08:54.883Z,145511.00
2022-11-04T18:11:42.728Z,145515.84
2022-11-04T18:14:16.222Z,145489.13
2022-11-04T18:16:45.641Z,145502.50
2022-11-04T18:19:12.727Z,145498.84
2022-11-04T18:21:40.338Z,145529.22
2022-11-04T18:24:07.577Z,145534.06
2022-11-04T18:26:34.878Z,145415.03
2022-11-04T18:29:02.404Z,145463.63
2022-11-04T18:31:34.397Z,145475.78
2022-11-04T18:34:04.958Z,145500.03
2022-11-04T18:36:33.730Z,145495.19
2022-11-04T18:39:01.284Z,145497.63
2022-11-04T18:41:28.346Z,145497.63
2022-11-04T18:43:55.412Z,145500.03
2022-11-04T18:46:22.580Z,145506.09
2022-11-04T18:48:50.807Z,145422.31
2022-11-04T18:51:21.945Z,145518.25
2022-11-04T18:53:50.405Z,145502.50
2022-11-04T18:56:20.529Z,145492.78
2022-11-04T18:58:47.699Z,145495.19
2022-11-04T19:01:20.064Z,145484.28
2022-11-04T19:03:47.783Z,145474.56
2022-11-04T19:06:19.020Z,145451.44
2022-11-04T19:08:47.216Z,145427.19
2022-11-04T19:11:22.575Z,145424.78
2022-11-04T19:13:51.824Z,145402.91
2022-11-04T19:16:19.253Z,145417.47
2022-11-04T19:18:49.236Z,145400.47
2022-11-04T19:21:19.468Z,145405.31
2022-11-04T19:23:46.903Z,145393.22
2022-11-04T19:26:17.358Z,145393.22
2022-11-04T19:28:48.657Z,145332.47
2022-11-04T19:31:19.285Z,145376.19
2022-11-04T19:33:47.218Z,145281.50
2022-11-04T19:36:16.608Z,145296.06
2022-11-04T19:38:47.201Z,145206.25
2022-11-04T19:41:34.954Z,145340.97
2022-11-04T19:44:04.190Z,145338.56
2022-11-04T19:46:32.526Z,145339.78
2022-11-04T19:49:00.459Z,145337.31
2022-11-04T19:51:31.959Z,145339.78
2022-11-04T19:53:59.805Z,145332.47
2022-11-04T19:56:26.886Z,145319.13
2022-11-04T19:58:54.286Z,145307.00
2022-11-04T20:01:21.608Z,145333.72
2022-11-04T20:03:48.811Z,145321.56
2022-11-04T20:06:16.536Z,145327.63
2022-11-04T20:08:45.542Z,145334.94
2022-11-04T20:11:13.802Z,145330.06
2022-11-04T20:13:49.991Z,145325.22
2022-11-04T20:16:27.521Z,145347.09
2022-11-04T20:18:56.877Z,145361.63
2022-11-04T20:21:27.687Z,145351.94
2022-11-04T20:23:59.387Z,145371.34
2022-11-04T20:26:28.251Z,145349.47
2022-11-04T20:28:58.228Z,145340.97
2022-11-04T20:31:27.555Z,145359.19
2022-11-04T20:33:58.475Z,145361.63
2022-11-04T20:36:27.212Z,145356.78
2022-11-04T20:39:11.763Z,145354.34
2022-11-04T20:41:38.753Z,145337.31
2022-11-04T20:44:05.775Z,145333.72
2022-11-04T20:46:34.655Z,145347.09
2022-11-04T20:49:03.107Z,145356.78
2022-11-04T20:51:33.029Z,145359.19
2022-11-04T20:54:01.813Z,145345.84
2022-11-04T20:56:37.128Z,145348.28
2022-11-04T20:59:05.965Z,145332.47
2022-11-04T21:01:35.859Z,145315.50
2022-11-04T21:04:11.981Z,145340.97
2022-11-04T21:06:39.552Z,145334.94
2022-11-04T21:09:12.715Z,145360.38
2022-11-04T21:11:40.584Z,145310.66
2022-11-04T21:14:11.270Z,145367.69
2022-11-04T21:16:38.755Z,145362.84
2022-11-04T21:19:06.692Z,145274.25
2022-11-04T21:21:34.031Z,145371.34
2022-11-04T21:24:03.460Z,145366.50
2022-11-04T21:26:33.949Z,145376.19
2022-11-04T21:29:04.083Z,145389.56
2022-11-04T21:31:32.781Z,145394.41
2022-11-04T21:34:00.672Z,145388.34
2022-11-04T21:36:27.929Z,145393.22
2022-11-04T21:38:55.366Z,145402.91
2022-11-04T21:41:25.800Z,145410.16
2022-11-04T21:44:00.561Z,145417.47
2022-11-04T21:46:30.354Z,145415.03
2022-11-04T21:48:57.498Z,145412.63
2022-11-04T21:51:28.808Z,145389.56
2022-11-04T21:53:59.749Z,145422.31
2022-11-04T21:56:29.236Z,145407.75
2022-11-04T21:58:56.762Z,145412.63
2022-11-04T22:01:26.636Z,145436.88
2022-11-04T22:03:56.469Z,145385.91
2022-11-04T22:06:24.970Z,145400.47
2022-11-04T22:08:54.900Z,145413.81
2022-11-04T22:11:27.835Z,145412.63
2022-11-04T22:14:04.293Z,145413.81
2022-11-04T22:16:33.657Z,145308.22
2022-11-04T22:19:03.417Z,145400.47
2022-11-04T22:21:31.558Z,145405.31
2022-11-04T22:23:59.580Z,145408.97
2022-11-04T22:26:29.247Z,145400.47
2022-11-04T22:28:57.319Z,145402.91
2022-11-04T22:31:28.231Z,145383.50
2022-11-04T22:33:56.768Z,145376.19
2022-11-04T22:36:23.905Z,145383.50
2022-11-04T22:38:51.015Z,145376.19
2022-11-04T22:41:21.519Z,145364.03
2022-11-04T22:43:48.721Z,145396.81
2022-11-04T22:46:21.698Z,145400.47
2022-11-04T22:48:48.725Z,145393.22
2022-11-04T22:51:16.612Z,145378.59
2022-11-04T22:53:44.610Z,145390.75
2022-11-04T22:56:14.310Z,145368.91
2022-11-04T22:58:41.593Z,145366.50
2022-11-04T23:01:11.461Z,145361.63
2022-11-04T23:03:39.390Z,145342.19
2022-11-04T23:06:07.671Z,145334.94
2022-11-04T23:08:36.171Z,145342.19
2022-11-04T23:11:28.525Z,145328.88
2022-11-04T23:14:20.818Z,145310.66
2022-11-04T23:17:09.148Z,145319.13
2022-11-04T23:19:37.773Z,145307.00
2022-11-04T23:22:23.954Z,145288.81
2022-11-04T23:25:06.194Z,145291.22
2022-11-04T23:27:53.700Z,145283.97
2022-11-04T23:30:21.151Z,145266.94
2022-11-04T23:32:51.954Z,145259.66
2022-11-04T23:35:38.998Z,145242.66
2022-11-04T23:38:05.987Z,145249.91
2022-11-04T23:40:33.479Z,145240.19
2022-11-04T23:43:00.536Z,145248.69
2022-11-04T23:45:46.318Z,145253.59
2022-11-04T23:48:32.157Z,145262.09
2022-11-04T23:51:19.937Z,145269.34
2022-11-04T23:54:06.306Z,145268.16
2022-11-04T23:56:52.192Z,145263.31
2022-11-04T23:59:37.915Z,145190.44
